sensor_id;sensor_type;location;lat;lon;timestamp;temperature;humidity
9820;DHT22;4949;48.482;9.206;2023-04-03T00:02:50;6.20;67.70
9820;DHT22;4949;48.482;9.206;2023-04-03T00:07:51;6.20;67.90
9820;DHT22;4949;48.482;9.206;2023-04-03T00:12:52;6.30;66.70
9820;DHT22;4949;48.482;9.206;2023-04-03T00:17:55;6.20;66.80
9820;DHT22;4949;48.482;9.206;2023-04-03T00:22:56;6.20;67.50
9820;DHT22;4949;48.482;9.206;2023-04-03T00:27:56;6.20;67.80
9820;DHT22;4949;48.482;9.206;2023-04-03T00:32:58;6.10;67.50
9820;DHT22;4949;48.482;9.206;2023-04-03T00:38:01;6.40;67.60
9820;DHT22;4949;48.482;9.206;2023-04-03T00:43:13;6.30;67.80
9820;DHT22;4949;48.482;9.206;2023-04-03T00:48:21;6.10;67.60
9820;DHT22;4949;48.482;9.206;2023-04-03T00:53:40;6.00;67.90
9820;DHT22;4949;48.482;9.206;2023-04-03T00:58:48;6.10;67.80
9820;DHT22;4949;48.482;9.206;2023-04-03T01:03:54;6.10;67.60
9820;DHT22;4949;48.482;9.206;2023-04-03T01:08:56;6.00;67.60
9820;DHT22;4949;48.482;9.206;2023-04-03T01:13:57;6.10;68.20
9820;DHT22;4949;48.482;9.206;2023-04-03T01:19:01;6.10;67.30
9820;DHT22;4949;48.482;9.206;2023-04-03T01:24:14;6.00;67.20
9820;DHT22;4949;48.482;9.206;2023-04-03T01:29:25;6.00;67.40
9820;DHT22;4949;48.482;9.206;2023-04-03T01:34:27;5.90;66.90
9820;DHT22;4949;48.482;9.206;2023-04-03T01:39:28;5.90;67.10
9820;DHT22;4949;48.482;9.206;2023-04-03T01:44:29;5.90;67.00
9820;DHT22;4949;48.482;9.206;2023-04-03T01:49:30;5.90;67.10
9820;DHT22;4949;48.482;9.206;2023-04-03T01:54:31;5.90;67.50
9820;DHT22;4949;48.482;9.206;2023-04-03T01:59:34;5.70;67.20
9820;DHT22;4949;48.482;9.206;2023-04-03T02:04:34;5.80;67.20
9820;DHT22;4949;48.482;9.206;2023-04-03T02:09:35;5.70;67.70
9820;DHT22;4949;48.482;9.206;2023-04-03T02:14:36;5.70;67.50
9820;DHT22;4949;48.482;9.206;2023-04-03T02:19:40;5.70;68.10
9820;DHT22;4949;48.482;9.206;2023-04-03T02:24:40;5.60;67.80
9820;DHT22;4949;48.482;9.206;2023-04-03T02:29:41;5.60;67.70
9820;DHT22;4949;48.482;9.206;2023-04-03T02:34:42;5.60;67.90
9820;DHT22;4949;48.482;9.206;2023-04-03T02:39:45;5.90;68.20
9820;DHT22;4949;48.482;9.206;2023-04-03T02:44:46;5.60;67.70
9820;DHT22;4949;48.482;9.206;2023-04-03T02:49:49;5.60;68.00
9820;DHT22;4949;48.482;9.206;2023-04-03T02:54:49;5.60;68.00
9820;DHT22;4949;48.482;9.206;2023-04-03T02:59:53;5.50;68.50
9820;DHT22;4949;48.482;9.206;2023-04-03T03:04:54;5.50;68.60
9820;DHT22;4949;48.482;9.206;2023-04-03T03:09:57;5.60;68.20
9820;DHT22;4949;48.482;9.206;2023-04-03T03:14:58;5.60;68.60
9820;DHT22;4949;48.482;9.206;2023-04-03T03:19:58;5.50;68.50
9820;DHT22;4949;48.482;9.206;2023-04-03T03:24:59;5.50;68.50
9820;DHT22;4949;48.482;9.206;2023-04-03T03:30:03;5.40;68.50
9820;DHT22;4949;48.482;9.206;2023-04-03T03:35:04;5.40;68.30
9820;DHT22;4949;48.482;9.206;2023-04-03T03:40:06;5.40;68.20
9820;DHT22;4949;48.482;9.206;2023-04-03T03:45:07;5.30;68.20
9820;DHT22;4949;48.482;9.206;2023-04-03T03:50:09;5.30;68.30
9820;DHT22;4949;48.482;9.206;2023-04-03T03:55:10;5.30;68.50
9820;DHT22;4949;48.482;9.206;2023-04-03T04:00:11;5.30;68.10
9820;DHT22;4949;48.482;9.206;2023-04-03T04:05:12;5.20;68.30
9820;DHT22;4949;48.482;9.206;2023-04-03T04:10:15;5.20;68.20
9820;DHT22;4949;48.482;9.206;2023-04-03T04:15:18;5.30;67.80
9820;DHT22;4949;48.482;9.206;2023-04-03T04:20:22;5.20;67.00
9820;DHT22;4949;48.482;9.206;2023-04-03T04:25:25;5.20;64.00
9820;DHT22;4949;48.482;9.206;2023-04-03T04:30:26;5.20;61.00
9820;DHT22;4949;48.482;9.206;2023-04-03T04:35:27;5.20;58.10
9820;DHT22;4949;48.482;9.206;2023-04-03T04:40:31;5.20;58.50
9820;DHT22;4949;48.482;9.206;2023-04-03T04:45:31;5.20;60.10
9820;DHT22;4949;48.482;9.206;2023-04-03T04:50:32;5.60;61.10
9820;DHT22;4949;48.482;9.206;2023-04-03T04:55:33;5.50;61.80
9820;DHT22;4949;48.482;9.206;2023-04-03T05:00:34;5.40;62.20
9820;DHT22;4949;48.482;9.206;2023-04-03T05:05:37;5.30;62.40
9820;DHT22;4949;48.482;9.206;2023-04-03T05:10:38;5.30;63.10
9820;DHT22;4949;48.482;9.206;2023-04-03T05:15:41;5.30;62.30
9820;DHT22;4949;48.482;9.206;2023-04-03T05:20:43;5.30;61.80
9820;DHT22;4949;48.482;9.206;2023-04-03T05:25:44;5.30;62.80
9820;DHT22;4949;48.482;9.206;2023-04-03T05:30:53;5.30;63.30
9820;DHT22;4949;48.482;9.206;2023-04-03T05:35:55;5.30;63.70
9820;DHT22;4949;48.482;9.206;2023-04-03T05:40:56;5.40;63.20
9820;DHT22;4949;48.482;9.206;2023-04-03T05:46:00;5.30;63.70
9820;DHT22;4949;48.482;9.206;2023-04-03T05:51:03;5.40;63.80
9820;DHT22;4949;48.482;9.206;2023-04-03T05:56:05;5.30;62.30
9820;DHT22;4949;48.482;9.206;2023-04-03T06:01:06;5.30;60.60
9820;DHT22;4949;48.482;9.206;2023-04-03T06:06:07;5.30;59.00
9820;DHT22;4949;48.482;9.206;2023-04-03T06:11:10;5.30;58.40
9820;DHT22;4949;48.482;9.206;2023-04-03T06:16:12;5.50;58.10
9820;DHT22;4949;48.482;9.206;2023-04-03T06:21:18;5.40;58.10
9820;DHT22;4949;48.482;9.206;2023-04-03T06:26:18;5.50;56.10
9820;DHT22;4949;48.482;9.206;2023-04-03T06:31:19;5.40;55.40
9820;DHT22;4949;48.482;9.206;2023-04-03T06:36:20;5.40;54.20
9820;DHT22;4949;48.482;9.206;2023-04-03T06:41:21;5.40;57.10
9820;DHT22;4949;48.482;9.206;2023-04-03T06:46:26;5.50;56.40
9820;DHT22;4949;48.482;9.206;2023-04-03T06:51:28;5.60;57.10
9820;DHT22;4949;48.482;9.206;2023-04-03T06:56:30;5.60;58.80
9820;DHT22;4949;48.482;9.206;2023-04-03T07:01:31;5.70;59.50
9820;DHT22;4949;48.482;9.206;2023-04-03T07:06:34;5.60;59.40
9820;DHT22;4949;48.482;9.206;2023-04-03T07:11:37;5.60;59.70
9820;DHT22;4949;48.482;9.206;2023-04-03T07:16:40;5.70;59.40
9820;DHT22;4949;48.482;9.206;2023-04-03T07:21:44;5.70;59.20
9820;DHT22;4949;48.482;9.206;2023-04-03T07:26:52;5.70;58.90
9820;DHT22;4949;48.482;9.206;2023-04-03T07:31:53;5.90;58.60
9820;DHT22;4949;48.482;9.206;2023-04-03T07:36:54;5.80;58.90
9820;DHT22;4949;48.482;9.206;2023-04-03T07:41:55;5.90;58.70
9820;DHT22;4949;48.482;9.206;2023-04-03T07:46:56;6.10;59.10
9820;DHT22;4949;48.482;9.206;2023-04-03T07:51:57;6.10;58.90
9820;DHT22;4949;48.482;9.206;2023-04-03T07:56:58;6.10;58.60
9820;DHT22;4949;48.482;9.206;2023-04-03T08:01:59;6.30;58.30
9820;DHT22;4949;48.482;9.206;2023-04-03T08:07:00;6.30;58.10
9820;DHT22;4949;48.482;9.206;2023-04-03T08:12:01;6.50;57.90
9820;DHT22;4949;48.482;9.206;2023-04-03T08:17:02;6.40;57.70
9820;DHT22;4949;48.482;9.206;2023-04-03T08:22:04;6.50;57.40
9820;DHT22;4949;48.482;9.206;2023-04-03T08:27:05;6.50;57.80
9820;DHT22;4949;48.482;9.206;2023-04-03T08:32:08;6.50;56.90
9820;DHT22;4949;48.482;9.206;2023-04-03T08:37:11;6.60;57.20
9820;DHT22;4949;48.482;9.206;2023-04-03T08:53:01;6.90;57.20
9820;DHT22;4949;48.482;9.206;2023-04-03T08:58:09;7.00;56.90
9820;DHT22;4949;48.482;9.206;2023-04-03T09:03:20;7.00;56.50
9820;DHT22;4949;48.482;9.206;2023-04-03T09:08:23;7.00;54.90
9820;DHT22;4949;48.482;9.206;2023-04-03T09:13:49;7.10;55.40
9820;DHT22;4949;48.482;9.206;2023-04-03T09:19:57;7.10;55.70
9820;DHT22;4949;48.482;9.206;2023-04-03T09:24:34;7.20;55.00
9820;DHT22;4949;48.482;9.206;2023-04-03T09:29:41;7.30;54.70
9820;DHT22;4949;48.482;9.206;2023-04-03T09:34:47;7.50;55.30
9820;DHT22;4949;48.482;9.206;2023-04-03T09:39:52;7.40;55.00
9820;DHT22;4949;48.482;9.206;2023-04-03T09:44:59;7.40;54.80
9820;DHT22;4949;48.482;9.206;2023-04-03T09:55:27;7.50;55.00
9820;DHT22;4949;48.482;9.206;2023-04-03T10:05:40;7.40;55.10
9820;DHT22;4949;48.482;9.206;2023-04-03T10:10:48;7.50;55.50
9820;DHT22;4949;48.482;9.206;2023-04-03T10:16:06;7.60;55.00
9820;DHT22;4949;48.482;9.206;2023-04-03T10:21:34;7.60;54.80
9820;DHT22;4949;48.482;9.206;2023-04-03T10:27:05;7.70;54.30
9820;DHT22;4949;48.482;9.206;2023-04-03T10:32:42;7.80;53.60
9820;DHT22;4949;48.482;9.206;2023-04-03T10:38:24;7.70;53.40
9820;DHT22;4949;48.482;9.206;2023-04-03T10:43:47;7.70;53.00
9820;DHT22;4949;48.482;9.206;2023-04-03T11:04:36;7.60;52.10
9820;DHT22;4949;48.482;9.206;2023-04-03T11:09:43;7.80;51.90
9820;DHT22;4949;48.482;9.206;2023-04-03T11:14:47;7.70;52.00
9820;DHT22;4949;48.482;9.206;2023-04-03T11:30:47;7.90;50.60
9820;DHT22;4949;48.482;9.206;2023-04-03T11:35:51;7.90;51.40
9820;DHT22;4949;48.482;9.206;2023-04-03T11:40:58;7.90;51.70
9820;DHT22;4949;48.482;9.206;2023-04-03T11:46:06;7.80;51.90
9820;DHT22;4949;48.482;9.206;2023-04-03T12:01:55;7.80;51.50
9820;DHT22;4949;48.482;9.206;2023-04-03T12:07:08;7.80;51.50
9820;DHT22;4949;48.482;9.206;2023-04-03T12:12:35;7.70;50.50
9820;DHT22;4949;48.482;9.206;2023-04-03T12:17:38;7.80;51.00
9820;DHT22;4949;48.482;9.206;2023-04-03T12:28:37;8.00;50.50
9820;DHT22;4949;48.482;9.206;2023-04-03T12:45:26;8.10;49.60
9820;DHT22;4949;48.482;9.206;2023-04-03T12:50:34;7.90;49.30
9820;DHT22;4949;48.482;9.206;2023-04-03T12:55:37;8.10;49.00
9820;DHT22;4949;48.482;9.206;2023-04-03T13:00:44;8.10;49.30
9820;DHT22;4949;48.482;9.206;2023-04-03T13:05:48;8.00;48.90
9820;DHT22;4949;48.482;9.206;2023-04-03T13:10:58;8.00;48.70
9820;DHT22;4949;48.482;9.206;2023-04-03T13:16:09;7.90;49.60
9820;DHT22;4949;48.482;9.206;2023-04-03T13:21:15;8.00;48.50
9820;DHT22;4949;48.482;9.206;2023-04-03T13:26:29;8.10;47.80
9820;DHT22;4949;48.482;9.206;2023-04-03T13:31:35;8.00;47.60
9820;DHT22;4949;48.482;9.206;2023-04-03T13:41:52;8.00;48.40
9820;DHT22;4949;48.482;9.206;2023-04-03T13:47:00;8.00;48.40
9820;DHT22;4949;48.482;9.206;2023-04-03T13:57:22;7.90;49.40
9820;DHT22;4949;48.482;9.206;2023-04-03T14:02:33;8.00;48.50
9820;DHT22;4949;48.482;9.206;2023-04-03T14:07:34;8.10;48.70
9820;DHT22;4949;48.482;9.206;2023-04-03T14:12:37;8.00;48.10
9820;DHT22;4949;48.482;9.206;2023-04-03T14:17:41;8.10;48.10
9820;DHT22;4949;48.482;9.206;2023-04-03T14:22:44;8.30;48.50
9820;DHT22;4949;48.482;9.206;2023-04-03T14:27:54;8.20;48.20
9820;DHT22;4949;48.482;9.206;2023-04-03T14:33:12;8.20;48.80
9820;DHT22;4949;48.482;9.206;2023-04-03T14:38:29;8.20;48.60
9820;DHT22;4949;48.482;9.206;2023-04-03T14:43:30;8.20;48.10
9820;DHT22;4949;48.482;9.206;2023-04-03T14:48:34;8.30;49.00
9820;DHT22;4949;48.482;9.206;2023-04-03T14:53:38;8.40;48.20
9820;DHT22;4949;48.482;9.206;2023-04-03T14:58:39;8.50;47.80
9820;DHT22;4949;48.482;9.206;2023-04-03T15:03:40;8.60;47.30
9820;DHT22;4949;48.482;9.206;2023-04-03T15:08:45;8.50;47.70
9820;DHT22;4949;48.482;9.206;2023-04-03T15:13:48;8.60;47.00
9820;DHT22;4949;48.482;9.206;2023-04-03T15:18:49;8.50;45.80
9820;DHT22;4949;48.482;9.206;2023-04-03T15:23:50;8.50;45.70
9820;DHT22;4949;48.482;9.206;2023-04-03T15:28:51;8.40;46.30
9820;DHT22;4949;48.482;9.206;2023-04-03T15:33:52;8.40;45.80
9820;DHT22;4949;48.482;9.206;2023-04-03T15:38:53;8.40;46.60
9820;DHT22;4949;48.482;9.206;2023-04-03T15:43:54;8.40;46.30
9820;DHT22;4949;48.482;9.206;2023-04-03T15:48:55;8.30;46.10
9820;DHT22;4949;48.482;9.206;2023-04-03T15:53:58;8.30;46.10
9820;DHT22;4949;48.482;9.206;2023-04-03T15:58:59;8.70;46.40
9820;DHT22;4949;48.482;9.206;2023-04-03T16:04:00;8.50;46.00
9820;DHT22;4949;48.482;9.206;2023-04-03T16:09:01;8.50;45.50
9820;DHT22;4949;48.482;9.206;2023-04-03T16:14:02;8.40;45.30
9820;DHT22;4949;48.482;9.206;2023-04-03T16:19:03;8.30;45.90
9820;DHT22;4949;48.482;9.206;2023-04-03T16:24:06;8.30;45.40
9820;DHT22;4949;48.482;9.206;2023-04-03T16:29:07;8.40;45.00
9820;DHT22;4949;48.482;9.206;2023-04-03T16:34:08;8.90;44.90
9820;DHT22;4949;48.482;9.206;2023-04-03T16:39:09;8.90;43.80
9820;DHT22;4949;48.482;9.206;2023-04-03T16:44:12;8.80;42.70
9820;DHT22;4949;48.482;9.206;2023-04-03T16:49:15;8.70;43.30
9820;DHT22;4949;48.482;9.206;2023-04-03T16:54:16;8.50;43.20
9820;DHT22;4949;48.482;9.206;2023-04-03T16:59:17;8.50;44.10
9820;DHT22;4949;48.482;9.206;2023-04-03T17:04:18;8.30;44.40
9820;DHT22;4949;48.482;9.206;2023-04-03T17:09:19;8.30;44.20
9820;DHT22;4949;48.482;9.206;2023-04-03T17:14:20;8.20;44.20
9820;DHT22;4949;48.482;9.206;2023-04-03T17:19:23;8.20;44.10
9820;DHT22;4949;48.482;9.206;2023-04-03T17:24:24;8.20;44.50
9820;DHT22;4949;48.482;9.206;2023-04-03T17:29:26;8.20;44.20
9820;DHT22;4949;48.482;9.206;2023-04-03T17:34:27;8.10;44.70
9820;DHT22;4949;48.482;9.206;2023-04-03T17:39:27;7.90;44.60
9820;DHT22;4949;48.482;9.206;2023-04-03T17:44:31;7.80;45.00
9820;DHT22;4949;48.482;9.206;2023-04-03T17:49:32;7.80;45.00
9820;DHT22;4949;48.482;9.206;2023-04-03T17:54:33;7.70;46.00
9820;DHT22;4949;48.482;9.206;2023-04-03T17:59:33;7.80;45.40
9820;DHT22;4949;48.482;9.206;2023-04-03T18:04:34;7.80;45.00
9820;DHT22;4949;48.482;9.206;2023-04-03T18:09:36;7.60;45.00
9820;DHT22;4949;48.482;9.206;2023-04-03T18:14:40;7.60;45.00
9820;DHT22;4949;48.482;9.206;2023-04-03T18:19:41;7.40;46.20
9820;DHT22;4949;48.482;9.206;2023-04-03T18:24:42;7.40;46.00
9820;DHT22;4949;48.482;9.206;2023-04-03T18:29:46;7.50;46.10
9820;DHT22;4949;48.482;9.206;2023-04-03T18:34:48;7.40;45.70
9820;DHT22;4949;48.482;9.206;2023-04-03T18:39:49;7.20;46.30
9820;DHT22;4949;48.482;9.206;2023-04-03T18:44:53;7.00;46.50
9820;DHT22;4949;48.482;9.206;2023-04-03T18:50:04;7.10;47.90
9820;DHT22;4949;48.482;9.206;2023-04-03T18:55:08;7.00;46.90
9820;DHT22;4949;48.482;9.206;2023-04-03T19:00:11;7.10;46.10
9820;DHT22;4949;48.482;9.206;2023-04-03T19:05:16;7.00;46.60
9820;DHT22;4949;48.482;9.206;2023-04-03T19:10:17;7.00;47.00
9820;DHT22;4949;48.482;9.206;2023-04-03T19:15:21;6.90;47.40
9820;DHT22;4949;48.482;9.206;2023-04-03T19:20:23;6.80;47.60
9820;DHT22;4949;48.482;9.206;2023-04-03T19:25:24;6.80;47.50
9820;DHT22;4949;48.482;9.206;2023-04-03T19:30:28;6.80;47.80
9820;DHT22;4949;48.482;9.206;2023-04-03T19:35:28;6.80;47.60
9820;DHT22;4949;48.482;9.206;2023-04-03T19:40:29;6.80;48.00
9820;DHT22;4949;48.482;9.206;2023-04-03T19:45:31;6.80;47.50
9820;DHT22;4949;48.482;9.206;2023-04-03T19:50:33;6.70;48.10
9820;DHT22;4949;48.482;9.206;2023-04-03T19:55:36;6.80;48.50
9820;DHT22;4949;48.482;9.206;2023-04-03T20:00:38;6.60;48.50
9820;DHT22;4949;48.482;9.206;2023-04-03T20:05:38;6.60;48.60
9820;DHT22;4949;48.482;9.206;2023-04-03T20:10:39;6.50;49.20
9820;DHT22;4949;48.482;9.206;2023-04-03T20:15:41;6.40;49.40
9820;DHT22;4949;48.482;9.206;2023-04-03T20:20:51;6.40;49.50
9820;DHT22;4949;48.482;9.206;2023-04-03T20:25:54;6.40;49.50
9820;DHT22;4949;48.482;9.206;2023-04-03T20:31:00;6.50;50.10
9820;DHT22;4949;48.482;9.206;2023-04-03T20:36:01;6.40;49.40
9820;DHT22;4949;48.482;9.206;2023-04-03T20:41:03;6.40;49.60
9820;DHT22;4949;48.482;9.206;2023-04-03T20:46:07;6.30;50.30
9820;DHT22;4949;48.482;9.206;2023-04-03T20:51:18;6.20;50.40
9820;DHT22;4949;48.482;9.206;2023-04-03T20:56:19;6.20;50.40
9820;DHT22;4949;48.482;9.206;2023-04-03T21:01:22;6.10;50.10
9820;DHT22;4949;48.482;9.206;2023-04-03T21:23:55;5.70;50.60
9820;DHT22;4949;48.482;9.206;2023-04-03T21:28:56;5.70;50.40
9820;DHT22;4949;48.482;9.206;2023-04-03T21:33:59;5.60;50.60
9820;DHT22;4949;48.482;9.206;2023-04-03T21:39:00;5.60;51.10
9820;DHT22;4949;48.482;9.206;2023-04-03T21:44:04;5.40;50.80
9820;DHT22;4949;48.482;9.206;2023-04-03T21:49:08;5.40;51.00
9820;DHT22;4949;48.482;9.206;2023-04-03T21:54:11;5.30;51.00
9820;DHT22;4949;48.482;9.206;2023-04-03T21:59:15;5.20;51.10
9820;DHT22;4949;48.482;9.206;2023-04-03T22:04:20;5.20;51.40
9820;DHT22;4949;48.482;9.206;2023-04-03T22:09:26;5.00;51.70
9820;DHT22;4949;48.482;9.206;2023-04-03T22:14:26;5.00;51.80
9820;DHT22;4949;48.482;9.206;2023-04-03T22:19:30;4.90;52.20
9820;DHT22;4949;48.482;9.206;2023-04-03T22:24:31;4.80;52.20
9820;DHT22;4949;48.482;9.206;2023-04-03T22:29:34;4.60;53.10
9820;DHT22;4949;48.482;9.206;2023-04-03T22:34:35;4.60;53.50
9820;DHT22;4949;48.482;9.206;2023-04-03T22:39:37;4.40;53.70
9820;DHT22;4949;48.482;9.206;2023-04-03T22:44:38;4.40;53.60
9820;DHT22;4949;48.482;9.206;2023-04-03T22:49:41;4.30;53.70
9820;DHT22;4949;48.482;9.206;2023-04-03T22:54:41;4.20;53.20
9820;DHT22;4949;48.482;9.206;2023-04-03T22:59:45;4.30;52.50
9820;DHT22;4949;48.482;9.206;2023-04-03T23:04:45;4.20;52.10
9820;DHT22;4949;48.482;9.206;2023-04-03T23:09:46;4.20;51.70
9820;DHT22;4949;48.482;9.206;2023-04-03T23:14:49;4.10;51.70
9820;DHT22;4949;48.482;9.206;2023-04-03T23:19:50;4.00;51.00
9820;DHT22;4949;48.482;9.206;2023-04-03T23:24:53;3.90;51.20
9820;DHT22;4949;48.482;9.206;2023-04-03T23:29:54;3.80;50.60
9820;DHT22;4949;48.482;9.206;2023-04-03T23:34:54;3.80;49.90
9820;DHT22;4949;48.482;9.206;2023-04-03T23:39:56;3.70;49.90
9820;DHT22;4949;48.482;9.206;2023-04-03T23:44:56;3.60;49.60
9820;DHT22;4949;48.482;9.206;2023-04-03T23:49:57;3.70;48.90
9820;DHT22;4949;48.482;9.206;2023-04-03T23:54:58;3.50;48.50
9820;DHT22;4949;48.482;9.206;2023-04-03T23:59:59;3.40;48.20
